Time;durP1;ratioP1;P1;durP2;ratioP2;P2;SDS_P1;SDS_P2;PMS_P1;PMS_P2;Temp;Humidity;BMP_temperature;BMP_pressure;BME280_temperature;BME280_humidity;BME280_pressure;Samples;Min_cycle;Max_cycle;Signal;HPM_P1;HPM_P2
2022/01/17 00:02:18;;;;;;;;;;;;;;;;;;5125408;27;1175;-78
2022/01/17 00:04:44;;;;;;;;;;;;;;;;;;5108661;27;1894;-77
2022/01/17 00:07:09;;;;;;;;;;;;;;;;;;5110236;27;1342;-78
2022/01/17 00:09:34;;;;;;;;;;;;;;;;;;5111329;27;1195;-77
2022/01/17 00:11:59;;;;;;;;;;;;;;;;;;5110583;27;1198;-78
2022/01/17 00:14:32;;;;;;;;;;;;;;;;;;5108610;27;1315;-78
2022/01/17 00:17:47;;;;;;;;;;;;;;;;;;5108892;27;1534;-77
2022/01/17 00:19:45;;;;;;;;;;;;;;;;;;5097616;27;1239;-77
2022/01/17 00:22:11;;;;;;;;;;;;;;;;;;5110498;27;1229;-78
2022/01/17 00:24:37;;;;;;;;;;;;;;;;;;5128637;27;1941;-77
2022/01/17 00:27:06;;;;;;;;;;;;;;;;;;5109858;27;1292;-77
2022/01/17 00:29:31;;;;;;;;;;;;;;;;;;5094010;27;1349;-77
2022/01/17 00:31:57;;;;;;;;;;;;;;;;;;5107833;27;1318;-77
2022/01/17 00:34:22;;;;;;;;;;;;;;;;;;5125083;27;1191;-77
2022/01/17 00:36:48;;;;;;;;;;;;;;;;;;5110880;27;1186;-78
2022/01/17 00:39:13;;;;;;;;;;;;;;;;;;5108512;27;1144;-78
2022/01/17 00:41:39;;;;;;;;;;;;;;;;;;5110767;27;1151;-77
2022/01/17 00:44:09;;;;;;;;;;;;;;;;;;5109826;27;1917;-77
2022/01/17 00:46:35;;;;;;;;;;;;;;;;;;5069564;28;1110;-78
2022/01/17 00:49:00;;;;;;;;;;;;;;;;;;5086635;28;1315;-77
2022/01/17 00:51:26;;;;;;;;;;;;;;;;;;5093623;27;1668;-77
2022/01/17 00:53:51;;;;;;;;;;;;;;;;;;5108041;27;1175;-79
2022/01/17 00:56:19;;;;;;;;;;;;;;;;;;5108255;27;1162;-76
2022/01/17 00:58:44;;;;;;;;;;;;;;;;;;5108431;27;1364;-77
2022/01/17 01:01:09;;;;;;;;;;;;;;;;;;5105797;27;1307;-77
2022/01/17 01:03:35;;;;;;;;;;;;;;;;;;5125648;27;1944;-77
2022/01/17 01:06:00;;;;;;;;;;;;;;;;;;5127593;27;1218;-78
2022/01/17 01:08:25;;;;;;;;;;;;;;;;;;5107989;27;1310;-77
2022/01/17 01:10:51;;;;;;;;;;;;;;;;;;5127314;27;1124;-77
2022/01/17 01:13:21;;;;;;;;;;;;;;;;;;5106405;28;1147;-78
2022/01/17 01:18:38;;;;;;;;;;;;;;;;;;5089102;28;1060;-78
2022/01/17 01:29:07;;;;;;;;;;;;;;;;;;5106515;27;1135;-76
2022/01/17 01:31:44;;;;;;;;;;;;;;;;;;5084430;28;1317;-77
2022/01/17 01:34:16;;;;;;;;;;;;;;;;;;5071145;28;1598;-77
2022/01/17 01:36:42;;;;;;;;;;;;;;;;;;5089112;28;1210;-78
2022/01/17 01:39:08;;;;;;;;;;;;;;;;;;5092135;28;1185;-76
2022/01/17 01:41:36;;;;;;;;;;;;;;;;;;5107327;28;1285;-77
2022/01/17 01:44:03;;;;;;;;;;;;;;;;;;5106757;28;1965;-77
2022/01/17 01:46:28;;;;;;;;;;;;;;;;;;5103325;27;1191;-77
2022/01/17 01:48:53;;;;;;;;;;;;;;;;;;5104890;27;1207;-77
2022/01/17 01:51:20;;;;;;;;;;;;;;;;;;5088398;28;1222;-77
2022/01/17 01:53:45;;;;;;;;;;;;;;;;;;5073031;28;1293;-77
2022/01/17 01:56:16;;;;;;;;;;;;;;;;;;5077469;27;1287;-77
2022/01/17 01:58:41;;;;;;;;;;;;;;;;;;5109821;27;1236;-77
2022/01/17 02:01:07;;;;;;;;;;;;;;;;;;5107217;27;1376;-76
2022/01/17 02:03:32;;;;;;;;;;;;;;;;;;5088207;27;1889;-77
2022/01/17 02:05:57;;;;;;;;;;;;;;;;;;5077597;27;1191;-77
2022/01/17 02:08:22;;;;;;;;;;;;;;;;;;5090712;27;1236;-77
2022/01/17 02:10:48;;;;;;;;;;;;;;;;;;5108897;27;1302;-77
2022/01/17 02:13:17;;;;;;;;;;;;;;;;;;5122460;27;1199;-76
2022/01/17 02:15:43;;;;;;;;;;;;;;;;;;5108819;27;1326;-76
2022/01/17 02:18:11;;;;;;;;;;;;;;;;;;5106063;28;1284;-77
2022/01/17 02:20:44;;;;;;;;;;;;;;;;;;5088715;27;1238;-77
2022/01/17 02:23:10;;;;;;;;;;;;;;;;;;5076778;28;1906;-77
2022/01/17 02:25:36;;;;;;;;;;;;;;;;;;5069976;28;1459;-78
2022/01/17 02:28:02;;;;;;;;;;;;;;;;;;5113886;27;1382;-75
2022/01/17 02:30:31;;;;;;;;;;;;;;;;;;5112905;27;1179;-76
2022/01/17 02:32:57;;;;;;;;;;;;;;;;;;5103323;28;1084;-76
2022/01/17 02:35:23;;;;;;;;;;;;;;;;;;5067626;28;1172;-77
2022/01/17 02:37:48;;;;;;;;;;;;;;;;;;5120575;27;1215;-76
2022/01/17 02:40:18;;;;;;;;;;;;;;;;;;5076038;28;1241;-77
2022/01/17 02:42:45;;;;;;;;;;;;;;;;;;5096359;27;1306;-77
2022/01/17 02:45:20;;;;;;;;;;;;;;;;;;5127144;27;1922;-78
2022/01/17 02:47:46;;;;;;;;;;;;;;;;;;5103071;27;1217;-77
2022/01/17 02:50:11;;;;;;;;;;;;;;;;;;5085521;28;1231;-77
2022/01/17 02:52:36;;;;;;;;;;;;;;;;;;5068666;28;1244;-77
2022/01/17 02:55:02;;;;;;;;;;;;;;;;;;5073918;28;1364;-77
2022/01/17 02:57:31;;;;;;;;;;;;;;;;;;5084978;28;1404;-77
2022/01/17 02:59:56;;;;;;;;;;;;;;;;;;5104538;28;1111;-77
2022/01/17 03:02:22;;;;;;;;;;;;;;;;;;5066878;28;1199;-77
2022/01/17 03:04:47;;;;;;;;;;;;;;;;;;5069040;28;1948;-77
2022/01/17 03:07:12;;;;;;;;;;;;;;;;;;5086220;28;1171;-77
2022/01/17 03:09:41;;;;;;;;;;;;;;;;;;5105365;28;1140;-77
2022/01/17 03:12:07;;;;;;;;;;;;;;;;;;5106672;27;1492;-76
2022/01/17 03:14:33;;;;;;;;;;;;;;;;;;5105383;27;1243;-76
2022/01/17 03:16:58;;;;;;;;;;;;;;;;;;5106083;28;1253;-77
2022/01/17 03:19:26;;;;;;;;;;;;;;;;;;5088456;28;1414;-77
2022/01/17 03:21:51;;;;;;;;;;;;;;;;;;5103915;28;1143;-77
2022/01/17 03:24:17;;;;;;;;;;;;;;;;;;5086915;28;1913;-77
2022/01/17 03:26:42;;;;;;;;;;;;;;;;;;5083955;28;1263;-77
2022/01/17 03:29:07;;;;;;;;;;;;;;;;;;5105934;28;1423;-76
2022/01/17 03:31:32;;;;;;;;;;;;;;;;;;5110834;28;1168;-77
2022/01/17 03:33:58;;;;;;;;;;;;;;;;;;5095394;28;1371;-77
2022/01/17 03:36:26;;;;;;;;;;;;;;;;;;5075269;28;1317;-78
2022/01/17 03:38:53;;;;;;;;;;;;;;;;;;5108645;28;1143;-77
2022/01/17 03:41:19;;;;;;;;;;;;;;;;;;5114216;28;1151;-77
2022/01/17 03:43:44;;;;;;;;;;;;;;;;;;5099178;27;1967;-77
2022/01/17 03:46:09;;;;;;;;;;;;;;;;;;5111246;27;1140;-77
2022/01/17 03:48:34;;;;;;;;;;;;;;;;;;5107936;27;1152;-77
2022/01/17 03:51:01;;;;;;;;;;;;;;;;;;5111960;27;1176;-77
2022/01/17 03:53:27;;;;;;;;;;;;;;;;;;5128679;27;1412;-77
2022/01/17 03:55:52;;;;;;;;;;;;;;;;;;5109613;27;1140;-77
2022/01/17 03:58:18;;;;;;;;;;;;;;;;;;5128631;27;1112;-77
2022/01/17 04:00:49;;;;;;;;;;;;;;;;;;5110024;27;1330;-77
2022/01/17 04:03:15;;;;;;;;;;;;;;;;;;5108408;27;1921;-77
2022/01/17 04:05:40;;;;;;;;;;;;;;;;;;5100468;27;1227;-76
2022/01/17 04:08:06;;;;;;;;;;;;;;;;;;5108982;27;1160;-77
2022/01/17 04:10:31;;;;;;;;;;;;;;;;;;5107710;28;1100;-77
2022/01/17 04:13:01;;;;;;;;;;;;;;;;;;5109006;28;1214;-77
2022/01/17 04:15:28;;;;;;;;;;;;;;;;;;5106990;28;1214;-77
2022/01/17 04:17:53;;;;;;;;;;;;;;;;;;5084367;28;1345;-77
2022/01/17 04:20:26;;;;;;;;;;;;;;;;;;5094100;28;1196;-77
2022/01/17 04:22:53;;;;;;;;;;;;;;;;;;5109930;28;1128;-77
2022/01/17 04:25:19;;;;;;;;;;;;;;;;;;5108567;28;1152;-77
2022/01/17 04:27:44;;;;;;;;;;;;;;;;;;5107764;28;1139;-76
2022/01/17 04:30:10;;;;;;;;;;;;;;;;;;5089908;28;1339;-77
2022/01/17 04:32:35;;;;;;;;;;;;;;;;;;5103347;28;1144;-77
2022/01/17 04:35:01;;;;;;;;;;;;;;;;;;5070491;28;1292;-77
2022/01/17 04:37:27;;;;;;;;;;;;;;;;;;5088685;28;1039;-77
2022/01/17 04:39:53;;;;;;;;;;;;;;;;;;5072201;28;1269;-78
2022/01/17 04:42:25;;;;;;;;;;;;;;;;;;5089058;28;1170;-78
2022/01/17 04:45:11;;;;;;;;;;;;;;;;;;5101733;27;1914;-77
2022/01/17 04:47:36;;;;;;;;;;;;;;;;;;5090273;27;1279;-76
2022/01/17 04:50:12;;;;;;;;;;;;;;;;;;5125362;27;1211;-76
2022/01/17 04:52:38;;;;;;;;;;;;;;;;;;5097547;28;1251;-77
2022/01/17 04:55:05;;;;;;;;;;;;;;;;;;5093823;27;1189;-77
2022/01/17 04:57:31;;;;;;;;;;;;;;;;;;5109581;27;1484;-77
2022/01/17 04:59:57;;;;;;;;;;;;;;;;;;5109665;27;1092;-77
2022/01/17 05:02:22;;;;;;;;;;;;;;;;;;5090824;27;1239;-78
2022/01/17 05:04:48;;;;;;;;;;;;;;;;;;5125104;27;1897;-78
2022/01/17 05:07:17;;;;;;;;;;;;;;;;;;5111099;27;1277;-77
2022/01/17 05:09:43;;;;;;;;;;;;;;;;;;5127319;27;1150;-78
2022/01/17 05:12:09;;;;;;;;;;;;;;;;;;5128485;27;1306;-77
2022/01/17 05:14:35;;;;;;;;;;;;;;;;;;5106457;27;1280;-76
2022/01/17 05:17:21;;;;;;;;;;;;;;;;;;5107286;27;1596;-76
2022/01/17 05:19:49;;;;;;;;;;;;;;;;;;5091640;27;1339;-76
2022/01/17 05:22:20;;;;;;;;;;;;;;;;;;5128326;27;1092;-76
2022/01/17 05:24:46;;;;;;;;;;;;;;;;;;5107269;27;1971;-76
2022/01/17 05:27:12;;;;;;;;;;;;;;;;;;5128297;27;1147;-76
2022/01/17 05:29:37;;;;;;;;;;;;;;;;;;5126545;27;1360;-75
2022/01/17 05:32:03;;;;;;;;;;;;;;;;;;5116062;27;1144;-76
2022/01/17 05:34:28;;;;;;;;;;;;;;;;;;5087034;28;1187;-77
2022/01/17 05:36:53;;;;;;;;;;;;;;;;;;5086761;28;1073;-76
2022/01/17 05:39:18;;;;;;;;;;;;;;;;;;5070974;28;1173;-77
2022/01/17 05:41:44;;;;;;;;;;;;;;;;;;5105059;28;1128;-77
2022/01/17 05:44:09;;;;;;;;;;;;;;;;;;5107921;27;1963;-77
2022/01/17 05:46:37;;;;;;;;;;;;;;;;;;5104400;27;1323;-77
2022/01/17 05:49:03;;;;;;;;;;;;;;;;;;5106664;27;1186;-76
2022/01/17 05:51:28;;;;;;;;;;;;;;;;;;5108586;27;1180;-77
2022/01/17 05:53:53;;;;;;;;;;;;;;;;;;5087809;27;1207;-77
2022/01/17 05:56:18;;;;;;;;;;;;;;;;;;5107502;27;1190;-77
2022/01/17 05:58:44;;;;;;;;;;;;;;;;;;5088564;27;1374;-77
2022/01/17 06:01:10;;;;;;;;;;;;;;;;;;5123965;27;1151;-77
2022/01/17 06:03:39;;;;;;;;;;;;;;;;;;5104766;27;1961;-77
2022/01/17 06:06:05;;;;;;;;;;;;;;;;;;5117596;27;1195;-77
2022/01/17 06:08:30;;;;;;;;;;;;;;;;;;5106321;27;1159;-77
2022/01/17 06:10:55;;;;;;;;;;;;;;;;;;5108109;27;1179;-76
2022/01/17 06:13:21;;;;;;;;;;;;;;;;;;5091689;28;1286;-77
2022/01/17 06:15:52;;;;;;;;;;;;;;;;;;5090015;28;1146;-77
2022/01/17 06:18:19;;;;;;;;;;;;;;;;;;5086913;27;1222;-77
2022/01/17 06:20:45;;;;;;;;;;;;;;;;;;5081583;28;1425;-78
2022/01/17 06:23:10;;;;;;;;;;;;;;;;;;5085552;28;1897;-77
2022/01/17 06:25:41;;;;;;;;;;;;;;;;;;5104407;28;1164;-76
2022/01/17 06:28:07;;;;;;;;;;;;;;;;;;5103549;28;1218;-76
2022/01/17 06:30:32;;;;;;;;;;;;;;;;;;5069120;28;1362;-76
2022/01/17 06:32:57;;;;;;;;;;;;;;;;;;5066050;27;1314;-76
2022/01/17 06:35:23;;;;;;;;;;;;;;;;;;5085678;28;1219;-75
2022/01/17 06:37:48;;;;;;;;;;;;;;;;;;5084399;28;1203;-76
2022/01/17 06:40:14;;;;;;;;;;;;;;;;;;5100781;27;1388;-77
2022/01/17 06:42:42;;;;;;;;;;;;;;;;;;5105800;27;1255;-77
2022/01/17 06:45:08;;;;;;;;;;;;;;;;;;5106207;27;1906;-76
2022/01/17 06:47:34;;;;;;;;;;;;;;;;;;5105070;27;1294;-76
2022/01/17 06:49:59;;;;;;;;;;;;;;;;;;5102484;27;1285;-76
2022/01/17 06:52:24;;;;;;;;;;;;;;;;;;5089957;27;1194;-76
2022/01/17 06:54:52;;;;;;;;;;;;;;;;;;5089340;28;1167;-76
2022/01/17 06:57:17;;;;;;;;;;;;;;;;;;5087563;28;1186;-77
2022/01/17 06:59:43;;;;;;;;;;;;;;;;;;5083851;28;1343;-76
2022/01/17 07:02:08;;;;;;;;;;;;;;;;;;5084281;28;1172;-76
2022/01/17 07:04:34;;;;;;;;;;;;;;;;;;5119521;27;1949;-76
2022/01/17 07:07:00;;;;;;;;;;;;;;;;;;5123486;27;1250;-76
2022/01/17 07:09:25;;;;;;;;;;;;;;;;;;5105825;27;1327;-77
2022/01/17 07:11:50;;;;;;;;;;;;;;;;;;5124082;27;1187;-77
2022/01/17 07:14:16;;;;;;;;;;;;;;;;;;5089727;27;1504;-76
2022/01/17 07:16:46;;;;;;;;;;;;;;;;;;5086921;28;1388;-77
2022/01/17 07:19:11;;;;;;;;;;;;;;;;;;5103358;28;1159;-77
2022/01/17 07:21:36;;;;;;;;;;;;;;;;;;5106148;28;1152;-76
2022/01/17 07:24:02;;;;;;;;;;;;;;;;;;5101640;28;1961;-76
2022/01/17 07:26:27;;;;;;;;;;;;;;;;;;5104527;28;1161;-77
2022/01/17 07:28:52;;;;;;;;;;;;;;;;;;5120718;28;1248;-77
2022/01/17 07:31:18;;;;;;;;;;;;;;;;;;5088960;28;1678;-77
2022/01/17 07:33:44;;;;;;;;;;;;;;;;;;5104217;28;1188;-77
2022/01/17 07:36:12;;;;;;;;;;;;;;;;;;5086120;28;1188;-78
2022/01/17 07:38:38;;;;;;;;;;;;;;;;;;5122544;28;1163;-77
2022/01/17 07:41:04;;;;;;;;;;;;;;;;;;5122452;28;1072;-76
2022/01/17 07:43:29;;;;;;;;;;;;;;;;;;5088210;28;1906;-77
2022/01/17 07:46:06;;;;;;;;;;;;;;;;;;5121344;28;1195;-78
2022/01/17 07:51:16;;;;;;;;;;;;;;;;;;5124305;28;1052;-76
2022/01/17 07:53:41;;;;;;;;;;;;;;;;;;5085034;28;1288;-76
2022/01/17 07:56:07;;;;;;;;;;;;;;;;;;5066561;28;1167;-76
2022/01/17 07:58:32;;;;;;;;;;;;;;;;;;5103230;28;1113;-78
2022/01/17 08:00:57;;;;;;;;;;;;;;;;;;5083947;28;1648;-78
2022/01/17 08:03:27;;;;;;;;;;;;;;;;;;5106440;28;1957;-78
2022/01/17 08:05:52;;;;;;;;;;;;;;;;;;5104713;28;1457;-77
2022/01/17 08:08:17;;;;;;;;;;;;;;;;;;5106344;28;1181;-76
2022/01/17 08:10:43;;;;;;;;;;;;;;;;;;5106409;28;1204;-77
2022/01/17 08:13:09;;;;;;;;;;;;;;;;;;5093211;28;1156;-76
2022/01/17 08:15:35;;;;;;;;;;;;;;;;;;5104263;28;1172;-77
2022/01/17 08:18:01;;;;;;;;;;;;;;;;;;5088064;28;1235;-77
2022/01/17 08:20:26;;;;;;;;;;;;;;;;;;5087687;27;1301;-76
2022/01/17 08:22:51;;;;;;;;;;;;;;;;;;5108671;27;1215;-76
2022/01/17 08:25:17;;;;;;;;;;;;;;;;;;5111525;27;1953;-77
2022/01/17 08:27:42;;;;;;;;;;;;;;;;;;5109893;27;1163;-77
2022/01/17 08:30:08;;;;;;;;;;;;;;;;;;5125980;27;1187;-77
2022/01/17 08:32:33;;;;;;;;;;;;;;;;;;5129572;27;1092;-76
2022/01/17 08:34:59;;;;;;;;;;;;;;;;;;5090180;27;1393;-76
2022/01/17 08:37:25;;;;;;;;;;;;;;;;;;5111059;27;1320;-77
2022/01/17 08:39:52;;;;;;;;;;;;;;;;;;5128298;27;1171;-77
2022/01/17 08:42:17;;;;;;;;;;;;;;;;;;5109388;27;1368;-76
2022/01/17 08:44:49;;;;;;;;;;;;;;;;;;5109974;27;1917;-76
2022/01/17 08:47:14;;;;;;;;;;;;;;;;;;5071834;28;1324;-78
2022/01/17 08:49:40;;;;;;;;;;;;;;;;;;5069975;28;1235;-77
2022/01/17 08:52:05;;;;;;;;;;;;;;;;;;5087941;28;1164;-77
2022/01/17 08:54:30;;;;;;;;;;;;;;;;;;5088723;28;1535;-77
2022/01/17 08:56:56;;;;;;;;;;;;;;;;;;5086960;28;1170;-77
2022/01/17 08:59:21;;;;;;;;;;;;;;;;;;5088140;28;1178;-80
2022/01/17 09:01:46;;;;;;;;;;;;;;;;;;5113872;27;1127;-80
2022/01/17 09:04:11;;;;;;;;;;;;;;;;;;5092062;28;1893;-76
2022/01/17 09:06:37;;;;;;;;;;;;;;;;;;5107755;27;1278;-76
2022/01/17 09:09:02;;;;;;;;;;;;;;;;;;5091907;28;1309;-77
2022/01/17 09:11:28;;;;;;;;;;;;;;;;;;5106777;27;1140;-78
2022/01/17 09:13:55;;;;;;;;;;;;;;;;;;5105769;28;1176;-76
2022/01/17 09:16:21;;;;;;;;;;;;;;;;;;5086394;28;1052;-77
2022/01/17 09:18:46;;;;;;;;;;;;;;;;;;5068513;28;1385;-79
2022/01/17 09:21:11;;;;;;;;;;;;;;;;;;5068692;28;1261;-78
2022/01/17 09:23:37;;;;;;;;;;;;;;;;;;5079887;28;1898;-77
2022/01/17 09:26:03;;;;;;;;;;;;;;;;;;5084893;28;1215;-77
2022/01/17 09:28:28;;;;;;;;;;;;;;;;;;5086896;28;1361;-78
2022/01/17 09:30:54;;;;;;;;;;;;;;;;;;5086160;28;1421;-77
2022/01/17 09:33:25;;;;;;;;;;;;;;;;;;5085873;28;1222;-78
2022/01/17 09:35:51;;;;;;;;;;;;;;;;;;5069533;28;1084;-77
2022/01/17 09:38:18;;;;;;;;;;;;;;;;;;5069641;28;1423;-78
2022/01/17 09:40:50;;;;;;;;;;;;;;;;;;5088347;28;1210;-76
2022/01/17 09:43:16;;;;;;;;;;;;;;;;;;5086961;28;1921;-78
2022/01/17 09:45:42;;;;;;;;;;;;;;;;;;5086853;28;1328;-77
2022/01/17 09:48:09;;;;;;;;;;;;;;;;;;5082393;28;1231;-77
2022/01/17 09:50:45;;;;;;;;;;;;;;;;;;5104357;28;1200;-77
2022/01/17 09:53:14;;;;;;;;;;;;;;;;;;5086830;28;1423;-79
2022/01/17 09:55:39;;;;;;;;;;;;;;;;;;5087121;28;1317;-77
2022/01/17 09:58:08;;;;;;;;;;;;;;;;;;5086073;28;1216;-78
2022/01/17 10:00:38;;;;;;;;;;;;;;;;;;5088530;28;1212;-78
2022/01/17 10:03:05;;;;;;;;;;;;;;;;;;5083598;28;1206;-78
2022/01/17 10:05:32;;;;;;;;;;;;;;;;;;5084225;28;1945;-78
2022/01/17 10:08:01;;;;;;;;;;;;;;;;;;5069818;28;1362;-78
2022/01/17 10:10:46;;;;;;;;;;;;;;;;;;5086405;28;1489;-77
2022/01/17 10:13:12;;;;;;;;;;;;;;;;;;5087367;28;1203;-77
2022/01/17 10:15:48;;;;;;;;;;;;;;;;;;5088548;28;1256;-77
2022/01/17 10:18:27;;;;;;;;;;;;;;;;;;5071513;28;1073;-77
2022/01/17 10:20:57;;;;;;;;;;;;;;;;;;5087322;28;1223;-78
2022/01/17 10:24:11;;;;;;;;;;;;;;;;;;5085198;28;1947;-77
2022/01/17 10:26:37;;;;;;;;;;;;;;;;;;5086070;28;1231;-77
2022/01/17 10:37:09;;;;;;;;;;;;;;;;;;5117361;27;983;-77
2022/01/17 10:39:37;;;;;;;;;;;;;;;;;;5106440;27;1163;-77
2022/01/17 10:42:22;;;;;;;;;;;;;;;;;;5105982;27;1258;-76
2022/01/17 10:44:47;;;;;;;;;;;;;;;;;;5102628;28;1969;-76
2022/01/17 10:47:20;;;;;;;;;;;;;;;;;;5082904;28;1228;-76
2022/01/17 10:49:56;;;;;;;;;;;;;;;;;;5089240;27;1290;-77
2022/01/17 10:52:33;;;;;;;;;;;;;;;;;;5087608;28;1213;-76
2022/01/17 10:55:08;;;;;;;;;;;;;;;;;;5085787;28;1438;-76
2022/01/17 10:57:41;;;;;;;;;;;;;;;;;;5092477;28;1186;-76
2022/01/17 11:00:08;;;;;;;;;;;;;;;;;;5096416;27;1325;-77
2022/01/17 11:02:34;;;;;;;;;;;;;;;;;;5097724;28;1532;-77
2022/01/17 11:05:03;;;;;;;;;;;;;;;;;;5079796;28;1981;-78
2022/01/17 11:07:28;;;;;;;;;;;;;;;;;;5104445;27;1185;-78
2022/01/17 11:09:57;;;;;;;;;;;;;;;;;;5088894;27;1308;-76
2022/01/17 11:12:27;;;;;;;;;;;;;;;;;;5087327;28;1194;-77
2022/01/17 11:14:52;;;;;;;;;;;;;;;;;;5104638;28;1669;-78
2022/01/17 11:17:24;;;;;;;;;;;;;;;;;;5079080;27;1319;-76
2022/01/17 11:20:07;;;;;;;;;;;;;;;;;;5121899;27;1147;-78
2022/01/17 11:22:43;;;;;;;;;;;;;;;;;;5086647;28;1295;-77
2022/01/17 11:25:16;;;;;;;;;;;;;;;;;;5103384;28;1925;-77
2022/01/17 11:27:42;;;;;;;;;;;;;;;;;;5106112;28;1227;-77
2022/01/17 11:30:08;;;;;;;;;;;;;;;;;;5121723;28;1342;-78
2022/01/17 11:32:34;;;;;;;;;;;;;;;;;;5103449;28;1140;-82
2022/01/17 11:35:02;;;;;;;;;;;;;;;;;;5096138;28;1426;-75
2022/01/17 11:37:31;;;;;;;;;;;;;;;;;;5101634;28;1178;-77
2022/01/17 11:39:57;;;;;;;;;;;;;;;;;;5102430;28;1171;-77
2022/01/17 11:42:38;;;;;;;;;;;;;;;;;;5101968;28;1171;-75
2022/01/17 11:45:23;;;;;;;;;;;;;;;;;;5085369;28;1942;-77
2022/01/17 11:47:50;;;;;;;;;;;;;;;;;;5106659;28;1187;-76
2022/01/17 11:50:27;;;;;;;;;;;;;;;;;;5080475;28;1258;-78
2022/01/17 11:52:57;;;;;;;;;;;;;;;;;;5088805;28;1234;-78
2022/01/17 11:55:54;;;;;;;;;;;;;;;;;;5106653;27;1086;-77
2022/01/17 11:58:22;;;;;;;;;;;;;;;;;;5074968;28;1534;-77
2022/01/17 12:01:10;;;;;;;;;;;;;;;;;;5108511;28;1191;-77
2022/01/17 12:03:40;;;;;;;;;;;;;;;;;;5086418;28;1980;-77
2022/01/17 12:06:24;;;;;;;;;;;;;;;;;;5108868;28;1163;-78
2022/01/17 12:08:50;;;;;;;;;;;;;;;;;;5091219;28;1206;-77
2022/01/17 12:11:42;;;;;;;;;;;;;;;;;;5088822;28;1227;-78
2022/01/17 12:14:20;;;;;;;;;;;;;;;;;;5087121;28;1275;-77
2022/01/17 12:16:46;;;;;;;;;;;;;;;;;;5107778;28;1140;-77
2022/01/17 12:19:15;;;;;;;;;;;;;;;;;;5087335;28;1187;-77
2022/01/17 12:21:43;;;;;;;;;;;;;;;;;;5089710;28;1239;-77
2022/01/17 12:24:31;;;;;;;;;;;;;;;;;;5091110;28;1897;-77
2022/01/17 12:27:03;;;;;;;;;;;;;;;;;;5107374;27;1441;-77
2022/01/17 12:29:38;;;;;;;;;;;;;;;;;;5106429;27;1349;-77
2022/01/17 12:32:04;;;;;;;;;;;;;;;;;;5126404;27;1182;-76
2022/01/17 12:34:38;;;;;;;;;;;;;;;;;;5099379;28;1432;-78
2022/01/17 12:37:23;;;;;;;;;;;;;;;;;;5088653;28;1268;-77
2022/01/17 12:39:51;;;;;;;;;;;;;;;;;;5089367;28;1182;-77
2022/01/17 12:42:17;;;;;;;;;;;;;;;;;;5071691;28;1243;-77
2022/01/17 12:44:45;;;;;;;;;;;;;;;;;;5091635;27;1934;-77
2022/01/17 12:47:10;;;;;;;;;;;;;;;;;;5090182;27;1388;-78
2022/01/17 12:49:35;;;;;;;;;;;;;;;;;;5106971;27;1253;-77
2022/01/17 12:52:01;;;;;;;;;;;;;;;;;;5103582;28;1144;-77
2022/01/17 12:54:29;;;;;;;;;;;;;;;;;;5091822;27;1351;-76
2022/01/17 12:56:56;;;;;;;;;;;;;;;;;;5127486;27;1188;-76
2022/01/17 12:59:22;;;;;;;;;;;;;;;;;;5086912;28;1178;-76
2022/01/17 13:01:49;;;;;;;;;;;;;;;;;;5086546;28;1338;-76
2022/01/17 13:04:21;;;;;;;;;;;;;;;;;;5086816;28;1973;-76
2022/01/17 13:06:48;;;;;;;;;;;;;;;;;;5088325;28;1213;-73
2022/01/17 13:09:16;;;;;;;;;;;;;;;;;;5103215;27;1160;-76
2022/01/17 13:11:43;;;;;;;;;;;;;;;;;;5107781;27;1240;-76
2022/01/17 13:14:09;;;;;;;;;;;;;;;;;;5103133;28;1112;-76
2022/01/17 13:16:35;;;;;;;;;;;;;;;;;;5084893;28;1226;-74
2022/01/17 13:19:03;;;;;;;;;;;;;;;;;;5087773;28;1112;-76
2022/01/17 13:21:28;;;;;;;;;;;;;;;;;;5070098;28;1247;-77
2022/01/17 13:24:39;;;;;;;;;;;;;;;;;;5088791;28;1975;-78
2022/01/17 13:26:45;;;;;;;;;;;;;;;;;;5090177;28;1211;-80
2022/01/17 13:29:10;;;;;;;;;;;;;;;;;;5096194;27;1136;-78
2022/01/17 13:31:36;;;;;;;;;;;;;;;;;;5089379;27;1294;-79
2022/01/17 13:34:24;;;;;;;;;;;;;;;;;;5111515;27;1290;-78
2022/01/17 13:36:51;;;;;;;;;;;;;;;;;;5109115;27;1249;-79
2022/01/17 13:39:18;;;;;;;;;;;;;;;;;;5109289;27;1267;-78
2022/01/17 13:41:46;;;;;;;;;;;;;;;;;;5107190;27;1319;-78
2022/01/17 13:44:11;;;;;;;;;;;;;;;;;;5109768;27;1933;-78
2022/01/17 13:46:43;;;;;;;;;;;;;;;;;;5105743;27;1288;-79
2022/01/17 13:49:09;;;;;;;;;;;;;;;;;;5128337;27;1337;-79
2022/01/17 13:51:34;;;;;;;;;;;;;;;;;;5089691;28;1277;-77
2022/01/17 13:54:00;;;;;;;;;;;;;;;;;;5107394;28;1139;-78
2022/01/17 13:56:33;;;;;;;;;;;;;;;;;;5092723;28;1393;-78
2022/01/17 13:58:59;;;;;;;;;;;;;;;;;;5088496;28;1259;-78
2022/01/17 14:01:30;;;;;;;;;;;;;;;;;;5068209;28;1152;-78
2022/01/17 14:03:55;;;;;;;;;;;;;;;;;;5087483;28;1902;-78
2022/01/17 14:06:25;;;;;;;;;;;;;;;;;;5088190;28;1293;-79
2022/01/17 14:08:53;;;;;;;;;;;;;;;;;;5069328;28;1265;-79
2022/01/17 14:11:23;;;;;;;;;;;;;;;;;;5071852;28;1332;-79
2022/01/17 14:13:54;;;;;;;;;;;;;;;;;;5091127;28;1356;-79
2022/01/17 14:16:25;;;;;;;;;;;;;;;;;;5084928;28;1236;-79
2022/01/17 14:18:53;;;;;;;;;;;;;;;;;;5087405;28;1344;-79
2022/01/17 14:21:24;;;;;;;;;;;;;;;;;;5087592;28;1182;-79
2022/01/17 14:24:10;;;;;;;;;;;;;;;;;;5085519;28;1914;-78
2022/01/17 14:26:37;;;;;;;;;;;;;;;;;;5054180;28;1240;-77
2022/01/17 14:29:02;;;;;;;;;;;;;;;;;;5104017;28;1112;-78
2022/01/17 14:31:35;;;;;;;;;;;;;;;;;;5066485;28;1246;-77
2022/01/17 14:34:08;;;;;;;;;;;;;;;;;;5086753;28;1174;-78
2022/01/17 14:36:33;;;;;;;;;;;;;;;;;;5102213;28;1147;-79
2022/01/17 14:38:59;;;;;;;;;;;;;;;;;;5085459;28;1330;-79
2022/01/17 14:41:40;;;;;;;;;;;;;;;;;;5068730;28;1322;-79
2022/01/17 14:44:05;;;;;;;;;;;;;;;;;;5082219;28;1955;-78
2022/01/17 14:46:31;;;;;;;;;;;;;;;;;;5082157;28;1295;-77
2022/01/17 14:48:57;;;;;;;;;;;;;;;;;;5083307;28;1368;-78
2022/01/17 14:51:29;;;;;;;;;;;;;;;;;;5104791;27;1364;-78
2022/01/17 14:53:58;;;;;;;;;;;;;;;;;;5104680;27;1191;-78
2022/01/17 15:01:54;;;;;;;;;;;;;;;;;;5083776;28;1151;-78
2022/01/17 15:04:19;;;;;;;;;;;;;;;;;;5095926;27;1917;-80
2022/01/17 15:06:45;;;;;;;;;;;;;;;;;;5085610;27;1215;-79
2022/01/17 15:09:11;;;;;;;;;;;;;;;;;;5090600;28;1072;-79
2022/01/17 15:11:37;;;;;;;;;;;;;;;;;;5065356;28;1447;-79
2022/01/17 15:14:03;;;;;;;;;;;;;;;;;;5069148;28;1171;-79
2022/01/17 15:16:28;;;;;;;;;;;;;;;;;;5081971;28;1196;-80
2022/01/17 15:18:54;;;;;;;;;;;;;;;;;;5084092;28;1231;-79
2022/01/17 15:21:19;;;;;;;;;;;;;;;;;;5107832;28;1144;-77
2022/01/17 15:23:44;;;;;;;;;;;;;;;;;;5105671;28;1889;-79
2022/01/17 15:26:10;;;;;;;;;;;;;;;;;;5088714;27;1203;-78
2022/01/17 15:28:37;;;;;;;;;;;;;;;;;;5071452;27;1252;-78
2022/01/17 15:31:05;;;;;;;;;;;;;;;;;;5073030;27;1313;-78
2022/01/17 15:33:30;;;;;;;;;;;;;;;;;;5090615;27;1105;-79
2022/01/17 15:35:55;;;;;;;;;;;;;;;;;;5111853;27;1184;-78
2022/01/17 15:38:22;;;;;;;;;;;;;;;;;;5112624;27;1446;-79
2022/01/17 15:40:49;;;;;;;;;;;;;;;;;;5111472;27;1190;-78
2022/01/17 15:43:14;;;;;;;;;;;;;;;;;;5114414;27;1267;-78
2022/01/17 15:45:39;;;;;;;;;;;;;;;;;;5129805;27;1969;-78
2022/01/17 15:48:04;;;;;;;;;;;;;;;;;;5095334;27;1231;-78
2022/01/17 15:50:30;;;;;;;;;;;;;;;;;;5111277;27;1215;-79
2022/01/17 15:52:56;;;;;;;;;;;;;;;;;;5110860;27;1481;-78
2022/01/17 15:55:21;;;;;;;;;;;;;;;;;;5113356;27;1314;-79
2022/01/17 15:57:46;;;;;;;;;;;;;;;;;;5095009;27;1295;-79
2022/01/17 16:00:12;;;;;;;;;;;;;;;;;;5113740;27;1239;-79
2022/01/17 16:02:37;;;;;;;;;;;;;;;;;;5109115;27;1214;-79
2022/01/17 16:05:03;;;;;;;;;;;;;;;;;;5129491;27;1968;-79
2022/01/17 16:07:37;;;;;;;;;;;;;;;;;;5112198;27;1194;-80
2022/01/17 16:10:03;;;;;;;;;;;;;;;;;;5076111;27;1244;-78
2022/01/17 16:12:36;;;;;;;;;;;;;;;;;;5111725;27;1164;-79
2022/01/17 16:15:02;;;;;;;;;;;;;;;;;;5075994;27;1287;-78
2022/01/17 16:17:28;;;;;;;;;;;;;;;;;;5106927;27;1280;-77
2022/01/17 16:19:53;;;;;;;;;;;;;;;;;;5108837;27;1442;-81
2022/01/17 16:22:19;;;;;;;;;;;;;;;;;;5124930;27;1037;-81
2022/01/17 16:24:44;;;;;;;;;;;;;;;;;;5104677;27;1933;-81
2022/01/17 16:27:10;;;;;;;;;;;;;;;;;;5097326;28;1375;-81
2022/01/17 16:29:38;;;;;;;;;;;;;;;;;;5097014;27;1331;-81
2022/01/17 16:32:04;;;;;;;;;;;;;;;;;;5102859;27;1064;-81
2022/01/17 16:34:29;;;;;;;;;;;;;;;;;;5087120;27;1352;-81
2022/01/17 16:36:55;;;;;;;;;;;;;;;;;;5083926;28;1140;-82
2022/01/17 16:39:20;;;;;;;;;;;;;;;;;;5073402;27;1230;-82
2022/01/17 16:41:46;;;;;;;;;;;;;;;;;;5101218;27;1188;-81
2022/01/17 16:44:13;;;;;;;;;;;;;;;;;;5083572;27;1909;-80
2022/01/17 16:46:41;;;;;;;;;;;;;;;;;;5100106;27;1156;-81
2022/01/17 16:49:06;;;;;;;;;;;;;;;;;;5101792;28;1190;-81
2022/01/17 16:51:31;;;;;;;;;;;;;;;;;;5083384;28;1387;-82
2022/01/17 16:53:56;;;;;;;;;;;;;;;;;;5098695;27;1140;-81
2022/01/17 16:56:22;;;;;;;;;;;;;;;;;;5084303;27;1163;-82
2022/01/17 16:58:47;;;;;;;;;;;;;;;;;;5083891;27;1245;-80
2022/01/17 17:01:12;;;;;;;;;;;;;;;;;;5078389;28;1207;-80
2022/01/17 17:03:38;;;;;;;;;;;;;;;;;;5101553;27;1909;-82
2022/01/17 17:06:04;;;;;;;;;;;;;;;;;;5089032;28;1249;-81
2022/01/17 17:08:30;;;;;;;;;;;;;;;;;;5083953;27;1278;-82
2022/01/17 17:10:55;;;;;;;;;;;;;;;;;;5103723;27;1142;-82
2022/01/17 17:13:21;;;;;;;;;;;;;;;;;;5081901;28;1218;-83
2022/01/17 17:15:57;;;;;;;;;;;;;;;;;;5094516;27;1487;-79
2022/01/17 17:18:26;;;;;;;;;;;;;;;;;;5099218;28;1221;-84
2022/01/17 17:20:52;;;;;;;;;;;;;;;;;;5087028;28;1179;-83
2022/01/17 17:23:21;;;;;;;;;;;;;;;;;;5072735;28;1179;-83
2022/01/17 17:25:49;;;;;;;;;;;;;;;;;;5078543;27;1882;-83
2022/01/17 17:28:15;;;;;;;;;;;;;;;;;;5122837;27;1163;-83
2022/01/17 17:30:53;;;;;;;;;;;;;;;;;;5126472;27;1198;-83
2022/01/17 17:33:28;;;;;;;;;;;;;;;;;;5108827;27;1158;-85
2022/01/17 17:35:53;;;;;;;;;;;;;;;;;;5088516;27;1247;-83